Airfield :
LOGIN :

Register | Disclaimer

   EN    FR    IT 

 










Legend :    VFR   Marginal VFR   IFR   Intensive IFR   Very Intensive IFR
Visi :
Ceiling :
>= 8 km
>= 3000ft
5 to 8 km
1000 to 3000 ft
1500m to 5 km
500 to 1000 ft
800 to 1500m
200 to 500 ft
< 800m
< 200 ft
Symbols :   Thunderstorms  Fog  Heavy snow  Heavy precipitations  Wind > 20 kt
SIGMETs :     Misc.  Thunderstorms  Icing  Turbulence  Mountain Waves  Volcanic Ashes






- Airport Elevation : 1966 ft
- IATA code : SGE


EDGS - Siegerland

CURRENT METAR :
  • 201120Z 11008KT 9999 SCT003 BKN007 01/M00 Q1015

EXPIRED METARs :
  • 201050Z 09007KT 050V120 9999 SCT004 BKN008 01/M00 Q1015
  • 201020Z 09007KT 7000 2100N BCFG FEW001 SCT004 BKN007 01/M00 Q1015
  • 200950Z 07007KT 1800 0350W R13/0450V1000D BCFG BR SCT001 OVC003 00/00 Q1016
  • 200920Z 08006KT 3800 0750W R13/1100N BCFG BR SCT001 BKN005 00/00 Q1016
  • 200850Z 09004KT 4000 0700W R13/1200D BCFG SCT001 BKN014 00/00 Q1016

TAF TAF EDGS
Valid from the 20 at 12:00 until the 20 at 21:00 UTC


201100Z 2012/2021 09007KT 9999 SCT004 BKN008
BECMG 2012/2015 SCT010 BKN015
TEMPO 2015/2018 BKN010
TEMPO 2018/2021 3000 BR BKN008



MET'MAP, your aeronautical weather chart ! - Copyright ORBIFLY December 2007 - Disclaimer

ORBIFLY MET'MAP TEAM :

Programming & Development : Alexandra Zaïnal
Concept & Development : Baudouin d'Aumeries
Co-Development & Prog : Marc-Olivier Méhu
Technical & hardware support : Manuel Goepfert

Contact : metmap@orbifly.com




SOURCES & CREDITS :

   NOAA